Time;durP1;ratioP1;P1;durP2;ratioP2;P2;SDS_P1;SDS_P2;PMS_P1;PMS_P2;Temp;Humidity;BMP_temperature;BMP_pressure;BME280_temperature;BME280_humidity;BME280_pressure;Samples;Min_cycle;Max_cycle;Signal;HPM_P1;HPM_P2
2022/01/09 00:00:30;;;;;;;10.00;7.38;;;4.80;99.90;;;;;;6095692;23;20037;-84
2022/01/09 00:02:56;;;;;;;10.55;6.88;;;4.80;99.90;;;;;;6070327;23;20026;-84
2022/01/09 00:05:22;;;;;;;10.98;7.75;;;4.80;99.90;;;;;;6070443;23;20493;-84
2022/01/09 00:07:48;;;;;;;10.70;7.53;;;4.80;99.90;;;;;;6094954;23;20469;-84
2022/01/09 00:10:15;;;;;;;11.57;8.02;;;4.80;99.90;;;;;;6094244;23;20404;-83
2022/01/09 00:12:43;;;;;;;11.10;7.85;;;4.80;99.90;;;;;;6122106;23;20058;-84
2022/01/09 00:15:09;;;;;;;10.40;7.70;;;4.80;99.90;;;;;;6096164;23;20026;-85
2022/01/09 00:17:36;;;;;;;10.48;7.55;;;4.80;99.90;;;;;;6124320;23;20506;-84
2022/01/09 00:20:03;;;;;;;11.98;8.25;;;4.80;99.90;;;;;;6126335;23;20633;-84
2022/01/09 00:22:43;;;;;;;10.88;7.65;;;4.80;99.90;;;;;;6074784;23;20018;-84
2022/01/09 00:25:18;;;;;;;10.68;7.47;;;4.80;99.90;;;;;;6098642;23;20022;-84
2022/01/09 00:27:44;;;;;;;13.48;8.35;;;4.80;99.90;;;;;;6125315;23;20357;-84
2022/01/09 00:30:13;;;;;;;11.73;9.07;;;4.80;99.90;;;;;;6098425;23;20467;-83
2022/01/09 00:32:40;;;;;;;12.57;8.32;;;4.80;99.90;;;;;;6100470;23;20105;-84
2022/01/09 00:35:09;;;;;;;12.68;8.25;;;4.80;99.90;;;;;;6078469;23;20018;-84
2022/01/09 00:37:36;;;;;;;12.90;8.00;;;4.80;99.90;;;;;;6100492;23;20022;-85
2022/01/09 00:40:04;;;;;;;12.63;8.38;;;4.80;99.90;;;;;;6100677;23;20073;-84
2022/01/09 00:42:29;;;;;;;11.65;8.50;;;4.80;99.90;;;;;;6125131;23;20026;-83
2022/01/09 00:45:04;;;;;;;13.82;9.02;;;4.80;99.90;;;;;;6125792;23;20025;-84
2022/01/09 00:47:50;;;;;;;13.90;9.38;;;4.80;99.90;;;;;;6077906;23;20018;-84
2022/01/09 00:50:18;;;;;;;14.82;9.70;;;4.70;99.90;;;;;;6078075;23;20029;-83
2022/01/09 00:52:44;;;;;;;13.88;9.15;;;4.70;99.90;;;;;;6100831;23;20065;-84
2022/01/09 00:55:10;;;;;;;13.13;9.82;;;4.80;99.90;;;;;;6124683;23;20532;-85
2022/01/09 00:57:36;;;;;;;14.02;9.68;;;4.70;99.90;;;;;;6076077;23;20033;-83
2022/01/09 01:00:05;;;;;;;15.10;10.13;;;4.70;99.90;;;;;;6126496;23;20029;-84
2022/01/09 01:02:31;;;;;;;15.25;10.25;;;4.70;99.90;;;;;;6100505;23;20021;-83
2022/01/09 01:04:57;;;;;;;15.25;10.43;;;4.80;99.90;;;;;;6100257;23;20088;-84
2022/01/09 01:07:23;;;;;;;14.48;10.40;;;4.70;99.90;;;;;;6100648;23;20023;-84
2022/01/09 01:09:49;;;;;;;14.18;9.23;;;4.80;99.90;;;;;;6100510;23;20030;-84
2022/01/09 01:12:15;;;;;;;15.48;10.07;;;4.70;99.90;;;;;;6052591;23;20029;-84
2022/01/09 01:14:41;;;;;;;13.48;9.20;;;4.70;99.90;;;;;;6076513;23;20509;-83
2022/01/09 01:17:09;;;;;;;15.85;9.98;;;4.80;99.90;;;;;;6076343;23;20018;-83
2022/01/09 01:19:34;;;;;;;17.20;9.85;;;4.80;99.90;;;;;;6100145;23;20030;-84
2022/01/09 01:22:01;;;;;;;15.30;9.82;;;4.80;99.90;;;;;;6125130;23;20104;-83
2022/01/09 01:24:28;;;;;;;15.75;10.30;;;4.80;99.90;;;;;;6076736;23;20466;-84
2022/01/09 01:26:53;;;;;;;18.15;10.60;;;4.80;99.90;;;;;;6076857;23;20081;-83
2022/01/09 01:29:19;;;;;;;15.23;9.07;;;4.80;99.90;;;;;;6100951;23;20026;-84
2022/01/09 01:31:45;;;;;;;20.17;9.77;;;4.80;99.90;;;;;;6100762;23;20365;-84
2022/01/09 01:34:14;;;;;;;19.73;10.20;;;4.80;99.90;;;;;;6100956;23;20033;-82
2022/01/09 01:36:41;;;;;;;16.15;9.55;;;4.90;99.90;;;;;;6053809;23;20105;-83
2022/01/09 01:39:08;;;;;;;18.67;9.68;;;4.90;99.90;;;;;;6101482;23;20029;-84
2022/01/09 01:41:36;;;;;;;18.23;9.55;;;4.80;99.90;;;;;;6100317;23;20484;-84
2022/01/09 01:44:02;;;;;;;23.08;9.82;;;4.90;99.90;;;;;;6099997;23;20149;-84
2022/01/09 01:46:28;;;;;;;19.98;9.65;;;5.00;99.90;;;;;;6100615;23;20073;-84
2022/01/09 01:48:54;;;;;;;22.45;9.00;;;4.90;99.90;;;;;;6125658;23;20401;-84
2022/01/09 01:51:22;;;;;;;22.27;10.52;;;5.00;99.90;;;;;;6053059;23;20030;-84
2022/01/09 01:53:49;;;;;;;22.75;10.52;;;5.00;99.90;;;;;;6124908;23;20018;-84
2022/01/09 01:56:19;;;;;;;18.23;10.38;;;5.00;99.90;;;;;;6100084;23;20338;-84
2022/01/09 01:58:46;;;;;;;17.25;10.27;;;5.00;99.90;;;;;;6100457;23;20022;-84
2022/01/09 02:01:12;;;;;;;20.88;10.23;;;5.00;99.90;;;;;;6076434;23;20028;-85
2022/01/09 02:03:38;;;;;;;33.70;10.82;;;5.00;99.90;;;;;;6100749;23;20101;-85
2022/01/09 02:06:05;;;;;;;31.25;9.88;;;5.10;99.90;;;;;;6128675;23;20076;-85
2022/01/09 02:08:31;;;;;;;40.95;9.50;;;5.10;99.90;;;;;;6100071;23;20021;-85
2022/01/09 02:10:57;;;;;;;47.55;9.25;;;5.10;99.90;;;;;;6124278;23;20025;-84
2022/01/09 02:13:23;;;;;;;52.03;9.73;;;5.20;99.90;;;;;;6099859;23;20018;-84
2022/01/09 02:15:49;;;;;;;34.40;7.95;;;5.30;99.90;;;;;;6099548;23;20044;-85
2022/01/09 02:18:36;;;;;;;46.35;6.60;;;5.50;99.90;;;;;;6123987;23;20061;-83
2022/01/09 02:21:02;;;;;;;41.70;6.22;;;5.50;99.90;;;;;;6076357;23;20026;-84
2022/01/09 02:23:28;;;;;;;36.55;6.90;;;5.60;99.90;;;;;;6101177;23;20041;-83
2022/01/09 02:26:00;;;;;;;35.47;8.57;;;5.60;99.90;;;;;;6101119;23;20058;-84
2022/01/09 02:28:26;;;;;;;43.55;8.65;;;5.60;99.90;;;;;;6099576;23;20105;-86
2022/01/09 02:30:52;;;;;;;30.10;6.13;;;5.60;99.90;;;;;;6124228;23;20090;-85
2022/01/09 02:33:18;;;;;;;28.10;5.07;;;5.70;99.90;;;;;;6075770;23;20018;-83
2022/01/09 02:35:44;;;;;;;39.08;6.25;;;5.70;99.90;;;;;;6099725;23;20484;-86
2022/01/09 02:38:09;;;;;;;37.72;6.53;;;5.80;99.90;;;;;;6127347;23;20527;-84
2022/01/09 02:40:35;;;;;;;42.08;5.75;;;5.80;99.90;;;;;;6101499;23;20032;-86
2022/01/09 02:43:03;;;;;;;44.45;6.68;;;5.80;99.90;;;;;;6099619;23;20018;-84
2022/01/09 02:45:29;;;;;;;38.97;7.68;;;5.80;99.90;;;;;;6125356;23;20426;-84
2022/01/09 02:47:57;;;;;;;45.45;7.40;;;5.80;99.90;;;;;;6099418;23;20026;-84
2022/01/09 02:52:57;;;;;;;36.40;5.78;;;5.90;99.90;;;;;;6123326;23;20037;-83
2022/01/09 02:55:26;;;;;;;40.73;7.13;;;5.90;99.90;;;;;;6125880;23;20029;-84
2022/01/09 02:57:56;;;;;;;36.20;6.85;;;5.90;99.90;;;;;;6124033;23;20458;-84
2022/01/09 03:00:34;;;;;;;58.10;9.60;;;6.00;99.90;;;;;;6125820;23;20119;-85
2022/01/09 03:03:02;;;;;;;62.15;9.75;;;6.00;99.90;;;;;;6125694;23;20484;-83
2022/01/09 03:05:30;;;;;;;64.72;10.90;;;6.10;99.90;;;;;;6099648;23;20026;-83
2022/01/09 03:07:57;;;;;;;75.22;13.43;;;6.20;99.90;;;;;;6051384;23;20083;-83
2022/01/09 03:10:23;;;;;;;70.68;10.40;;;6.30;99.90;;;;;;6128662;23;20026;-85
2022/01/09 03:12:52;;;;;;;62.85;10.48;;;6.30;99.90;;;;;;6101267;23;20026;-85
2022/01/09 03:15:19;;;;;;;63.80;10.27;;;6.30;99.90;;;;;;6126552;23;20045;-84
2022/01/09 03:17:46;;;;;;;54.60;9.75;;;6.40;99.90;;;;;;6075084;23;20026;-83
2022/01/09 03:20:14;;;;;;;63.97;9.18;;;6.40;99.90;;;;;;6075295;23;20022;-84
2022/01/09 03:22:40;;;;;;;55.65;9.18;;;6.40;99.90;;;;;;6125429;23;20033;-84
2022/01/09 03:25:11;;;;;;;59.55;10.55;;;6.40;99.90;;;;;;6050918;23;20101;-83
2022/01/09 03:27:38;;;;;;;56.42;8.57;;;6.50;99.90;;;;;;6076016;23;20022;-86
2022/01/09 03:30:07;;;;;;;63.15;9.90;;;6.50;99.90;;;;;;6075199;23;20017;-84
2022/01/09 03:32:34;;;;;;;53.08;11.40;;;6.40;99.90;;;;;;6099560;23;20026;-86
2022/01/09 03:35:00;;;;;;;52.47;8.27;;;6.50;99.90;;;;;;6125265;23;20053;-86
2022/01/09 03:37:26;;;;;;;51.22;9.55;;;6.50;99.90;;;;;;6075955;23;20470;-85
2022/01/09 03:39:52;;;;;;;52.85;8.82;;;6.50;99.90;;;;;;6101165;23;20497;-85
2022/01/09 03:42:18;;;;;;;50.17;9.40;;;6.50;99.90;;;;;;6123928;23;20458;-86
2022/01/09 03:44:44;;;;;;;51.42;9.57;;;6.50;99.90;;;;;;6099195;23;20029;-85
2022/01/09 03:47:10;;;;;;;42.88;8.85;;;6.50;99.90;;;;;;6123807;23;20058;-86
2022/01/09 03:49:36;;;;;;;39.83;7.05;;;6.50;99.90;;;;;;6125657;23;20020;-85
2022/01/09 03:52:04;;;;;;;43.15;8.63;;;6.50;99.90;;;;;;6100313;23;20399;-86
2022/01/09 03:54:30;;;;;;;51.42;8.93;;;6.50;99.90;;;;;;6078207;23;20017;-86
2022/01/09 03:56:56;;;;;;;48.97;8.27;;;6.50;99.90;;;;;;6125045;23;20029;-84
2022/01/09 03:59:22;;;;;;;40.95;7.20;;;6.50;99.90;;;;;;6125890;23;20022;-85
2022/01/09 04:01:48;;;;;;;52.95;8.63;;;6.40;99.90;;;;;;6098634;23;20025;-86
2022/01/09 04:04:14;;;;;;;51.67;8.65;;;6.40;99.90;;;;;;6125188;23;20021;-86
2022/01/09 04:06:45;;;;;;;39.05;7.28;;;6.40;99.90;;;;;;6123522;23;20093;-86
2022/01/09 04:09:19;;;;;;;42.05;8.77;;;6.30;99.90;;;;;;6124905;23;20022;-85
2022/01/09 04:11:49;;;;;;;38.17;6.20;;;6.40;99.90;;;;;;6098024;23;20026;-87
2022/01/09 04:14:15;;;;;;;48.63;7.55;;;6.40;99.90;;;;;;6076429;23;20104;-85
2022/01/09 04:16:41;;;;;;;49.83;8.77;;;6.40;99.90;;;;;;6126357;23;20033;-84
2022/01/09 04:19:12;;;;;;;42.83;7.80;;;6.30;99.90;;;;;;6066741;23;20053;-85
2022/01/09 04:21:41;;;;;;;47.80;7.63;;;6.40;99.90;;;;;;6071136;23;20447;-85
2022/01/09 04:24:09;;;;;;;52.63;8.10;;;6.30;99.90;;;;;;6118536;23;20082;-85
2022/01/09 04:26:36;;;;;;;47.25;8.30;;;6.30;99.90;;;;;;6096125;23;20354;-86
2022/01/09 04:29:02;;;;;;;37.55;6.25;;;6.20;99.90;;;;;;6118555;23;20018;-85
2022/01/09 04:31:28;;;;;;;39.28;6.15;;;6.20;99.90;;;;;;6070146;23;20418;-83
2022/01/09 04:33:57;;;;;;;49.30;9.07;;;6.30;99.90;;;;;;6094918;23;20022;-84
2022/01/09 04:36:23;;;;;;;36.40;6.50;;;6.30;99.90;;;;;;6070708;23;20085;-85
2022/01/09 04:38:50;;;;;;;49.53;7.35;;;6.30;99.90;;;;;;6096277;23;20022;-86
2022/01/09 04:41:16;;;;;;;35.45;6.18;;;6.30;99.90;;;;;;6070755;23;20034;-85
2022/01/09 04:43:44;;;;;;;46.83;6.75;;;6.20;99.90;;;;;;6096063;23;20027;-87
2022/01/09 04:46:10;;;;;;;44.42;7.55;;;6.20;99.90;;;;;;6098383;23;20030;-85
2022/01/09 04:48:36;;;;;;;34.83;6.35;;;6.20;99.90;;;;;;6095764;23;20462;-85
2022/01/09 04:51:02;;;;;;;43.08;5.93;;;6.20;99.90;;;;;;6095372;23;20022;-85
2022/01/09 04:53:28;;;;;;;28.10;6.45;;;6.20;99.90;;;;;;6118702;23;20061;-85
2022/01/09 04:55:53;;;;;;;39.03;7.65;;;6.20;99.90;;;;;;6118257;23;20113;-85
2022/01/09 04:58:20;;;;;;;31.35;5.57;;;6.30;99.90;;;;;;6095632;23;20144;-83
2022/01/09 05:00:48;;;;;;;38.75;7.05;;;6.20;99.90;;;;;;6070503;23;20027;-86
2022/01/09 05:03:16;;;;;;;46.00;9.20;;;6.20;99.90;;;;;;6094219;23;20033;-84
2022/01/09 05:05:42;;;;;;;32.22;6.43;;;6.20;99.90;;;;;;6094175;23;20033;-87
2022/01/09 05:08:08;;;;;;;36.72;6.47;;;6.20;99.90;;;;;;6118900;23;20054;-86
2022/01/09 05:10:34;;;;;;;39.17;6.50;;;6.20;99.90;;;;;;6095767;23;20038;-86
2022/01/09 05:13:00;;;;;;;30.55;5.90;;;6.20;99.90;;;;;;6096750;23;20077;-86
2022/01/09 05:15:25;;;;;;;36.60;6.57;;;6.10;99.90;;;;;;6095120;23;20097;-87
2022/01/09 05:17:57;;;;;;;23.90;4.13;;;6.20;99.90;;;;;;6095174;23;20018;-85
2022/01/09 05:20:23;;;;;;;30.20;4.75;;;6.20;99.90;;;;;;6125095;23;20037;-87
2022/01/09 05:22:49;;;;;;;31.30;4.25;;;6.20;99.90;;;;;;6100660;23;20034;-86
2022/01/09 05:25:15;;;;;;;24.85;4.43;;;6.20;99.90;;;;;;6100183;23;20029;-86
2022/01/09 05:27:41;;;;;;;26.95;4.65;;;6.20;99.90;;;;;;6127238;23;20053;-85
2022/01/09 05:30:07;;;;;;;28.10;4.68;;;6.20;99.90;;;;;;6104365;23;20022;-86
2022/01/09 05:32:33;;;;;;;27.25;4.93;;;6.10;99.90;;;;;;6124807;23;20022;-86
2022/01/09 05:34:59;;;;;;;28.05;4.60;;;6.10;99.90;;;;;;6124866;23;20148;-86
2022/01/09 05:37:25;;;;;;;42.67;7.55;;;6.10;99.90;;;;;;6076440;23;20129;-85
2022/01/09 05:39:55;;;;;;;33.08;5.85;;;6.10;99.90;;;;;;6100248;23;20022;-85
2022/01/09 05:42:21;;;;;;;28.80;5.43;;;6.10;99.90;;;;;;6076527;23;20097;-85
2022/01/09 05:44:47;;;;;;;34.75;6.47;;;6.10;99.90;;;;;;6125107;23;20097;-85
2022/01/09 05:47:13;;;;;;;37.78;5.30;;;6.10;99.90;;;;;;6100988;23;20022;-86
2022/01/09 05:49:40;;;;;;;28.70;5.25;;;6.10;99.90;;;;;;6102505;23;20025;-85
2022/01/09 05:52:06;;;;;;;31.00;5.30;;;6.00;99.90;;;;;;6101067;23;20032;-85
2022/01/09 05:54:33;;;;;;;37.60;5.53;;;6.00;99.90;;;;;;6100544;23;20029;-86
2022/01/09 05:56:58;;;;;;;36.50;4.22;;;6.00;99.90;;;;;;6099731;23;20025;-85
2022/01/09 05:59:24;;;;;;;32.30;6.55;;;6.00;99.90;;;;;;6124578;23;20342;-85
2022/01/09 06:01:50;;;;;;;33.25;5.55;;;6.00;99.90;;;;;;6099964;23;20108;-86
2022/01/09 06:04:17;;;;;;;37.15;7.47;;;6.00;99.90;;;;;;6100282;23;20028;-84
2022/01/09 06:06:42;;;;;;;28.35;6.28;;;6.00;99.90;;;;;;6100262;23;20022;-85
2022/01/09 06:09:11;;;;;;;34.22;6.45;;;6.00;99.90;;;;;;6077261;23;20106;-85
2022/01/09 06:11:37;;;;;;;45.70;6.80;;;6.00;99.90;;;;;;6127752;23;20062;-84
2022/01/09 06:14:03;;;;;;;29.15;6.53;;;6.00;99.90;;;;;;6128893;23;20022;-84
2022/01/09 06:16:29;;;;;;;25.85;3.95;;;6.00;99.90;;;;;;6127642;23;20026;-86
2022/01/09 06:18:55;;;;;;;23.35;4.78;;;6.00;99.90;;;;;;6046636;23;20037;-86
2022/01/09 06:21:21;;;;;;;29.58;5.45;;;6.00;99.90;;;;;;6073856;23;20081;-84
2022/01/09 06:23:47;;;;;;;28.30;4.78;;;6.00;99.90;;;;;;6096543;23;20073;-84
2022/01/09 06:26:13;;;;;;;26.33;5.00;;;6.00;99.90;;;;;;6070699;23;20097;-85
2022/01/09 06:28:38;;;;;;;32.33;6.30;;;6.00;99.90;;;;;;6097222;23;20023;-84
2022/01/09 06:31:04;;;;;;;29.52;4.80;;;6.00;99.90;;;;;;6095008;23;20022;-86
2022/01/09 06:33:31;;;;;;;31.38;5.32;;;6.00;99.90;;;;;;6095060;23;20454;-85
2022/01/09 06:35:57;;;;;;;34.88;5.10;;;6.00;99.90;;;;;;6046858;23;20026;-85
2022/01/09 06:38:23;;;;;;;30.08;3.83;;;6.00;99.90;;;;;;6071140;23;20327;-86
2022/01/09 06:40:49;;;;;;;29.60;4.78;;;6.00;99.90;;;;;;6094914;23;20448;-86
2022/01/09 06:43:15;;;;;;;25.05;4.03;;;6.00;99.90;;;;;;6095093;23;20018;-86
2022/01/09 06:45:40;;;;;;;28.67;3.75;;;6.00;99.90;;;;;;6070981;23;20060;-86
2022/01/09 06:48:06;;;;;;;32.33;7.50;;;5.90;99.90;;;;;;6094091;23;20023;-86
2022/01/09 06:50:32;;;;;;;26.98;4.90;;;5.90;99.90;;;;;;6070858;23;20086;-86
2022/01/09 06:52:59;;;;;;;26.33;4.80;;;5.90;99.90;;;;;;6097324;23;20066;-87
2022/01/09 06:55:25;;;;;;;26.38;5.43;;;5.90;99.90;;;;;;6073977;23;20331;-84
2022/01/09 06:57:53;;;;;;;40.35;5.75;;;5.90;99.90;;;;;;6100474;23;20342;-84
2022/01/09 07:00:19;;;;;;;27.85;6.07;;;5.80;99.90;;;;;;6055225;23;20030;-86
2022/01/09 07:02:45;;;;;;;27.38;4.60;;;5.80;99.90;;;;;;6098986;23;20058;-86
2022/01/09 07:05:12;;;;;;;24.85;4.38;;;5.80;99.90;;;;;;6070440;23;20434;-85
2022/01/09 07:07:38;;;;;;;27.88;4.45;;;5.80;99.90;;;;;;6071138;23;20094;-84
2022/01/09 07:10:04;;;;;;;18.95;3.22;;;5.80;99.90;;;;;;6094667;23;20453;-86
2022/01/09 07:12:30;;;;;;;30.55;4.40;;;5.80;99.90;;;;;;6094789;23;20098;-85
2022/01/09 07:14:56;;;;;;;27.95;4.20;;;5.80;99.90;;;;;;6096337;23;20027;-85
2022/01/09 07:17:22;;;;;;;28.58;3.60;;;5.80;99.90;;;;;;6047079;23;20097;-86
2022/01/09 07:19:48;;;;;;;31.65;4.43;;;5.80;99.90;;;;;;6094893;23;20026;-85
2022/01/09 07:22:13;;;;;;;29.15;4.30;;;5.70;99.90;;;;;;6097801;23;20037;-84
2022/01/09 07:24:39;;;;;;;26.90;3.80;;;5.70;99.90;;;;;;6096347;23;20116;-85
2022/01/09 07:27:05;;;;;;;28.20;4.78;;;5.80;99.90;;;;;;6048222;23;20148;-85
2022/01/09 07:29:31;;;;;;;26.95;4.50;;;5.70;99.90;;;;;;6096213;23;20450;-85
2022/01/09 07:31:57;;;;;;;30.52;5.20;;;5.60;99.90;;;;;;6047061;23;20026;-86
2022/01/09 07:34:23;;;;;;;16.27;4.60;;;5.60;99.90;;;;;;6094629;23;20030;-85
2022/01/09 07:36:49;;;;;;;25.70;4.25;;;5.70;99.90;;;;;;6094510;23;20074;-85
2022/01/09 07:39:15;;;;;;;20.75;4.15;;;5.70;99.90;;;;;;6095329;23;20462;-85
2022/01/09 07:41:42;;;;;;;18.90;3.75;;;5.60;99.90;;;;;;6072118;23;20462;-86
2022/01/09 07:44:08;;;;;;;27.05;4.80;;;5.60;99.90;;;;;;6102134;23;20022;-83
2022/01/09 07:46:39;;;;;;;24.70;3.70;;;5.60;99.90;;;;;;6101638;23;20072;-86
2022/01/09 07:49:05;;;;;;;25.05;3.92;;;5.60;99.90;;;;;;6099955;23;20022;-87
2022/01/09 07:51:30;;;;;;;24.58;3.53;;;5.60;99.90;;;;;;6047402;23;20081;-86
2022/01/09 07:53:56;;;;;;;29.20;5.32;;;5.60;99.90;;;;;;6097621;23;20349;-86
2022/01/09 07:56:22;;;;;;;24.63;4.43;;;5.60;99.90;;;;;;6073233;23;20022;-86
2022/01/09 07:58:47;;;;;;;18.52;3.25;;;5.50;99.90;;;;;;6094855;23;20022;-86
2022/01/09 08:01:13;;;;;;;30.63;5.70;;;5.50;99.90;;;;;;6094615;23;20084;-86
2022/01/09 08:03:40;;;;;;;30.00;4.88;;;5.50;99.90;;;;;;6094959;23;20018;-86
2022/01/09 08:06:06;;;;;;;23.45;3.78;;;5.50;99.90;;;;;;6070091;23;20045;-86
2022/01/09 08:08:32;;;;;;;20.30;3.15;;;5.40;99.90;;;;;;6070723;23;20097;-86
2022/01/09 08:10:57;;;;;;;29.42;4.18;;;5.40;99.90;;;;;;6096365;23;20027;-85
2022/01/09 08:13:23;;;;;;;26.27;4.03;;;5.40;99.90;;;;;;6046819;23;20023;-87
2022/01/09 08:15:49;;;;;;;23.85;4.05;;;5.40;99.90;;;;;;6094261;23;20034;-87
2022/01/09 08:18:15;;;;;;;24.67;3.67;;;5.40;99.90;;;;;;6048417;23;20025;-87
2022/01/09 08:20:40;;;;;;;25.70;4.75;;;5.40;99.90;;;;;;6126069;23;20033;-86
2022/01/09 08:23:08;;;;;;;22.92;4.43;;;5.50;99.90;;;;;;6125968;23;20446;-86
2022/01/09 08:25:33;;;;;;;21.58;3.97;;;5.50;99.90;;;;;;6129912;23;20026;-85
2022/01/09 08:27:59;;;;;;;25.13;4.30;;;5.50;99.90;;;;;;6103364;23;20077;-86
2022/01/09 08:30:27;;;;;;;18.60;4.10;;;5.50;99.90;;;;;;6126258;23;20156;-87
2022/01/09 08:32:53;;;;;;;14.82;2.90;;;5.60;99.90;;;;;;6075406;23;20029;-85
2022/01/09 08:35:31;;;;;;;23.67;4.28;;;5.60;99.90;;;;;;6125491;23;20022;-86
2022/01/09 08:37:57;;;;;;;24.15;3.53;;;5.60;99.90;;;;;;6099295;23;20065;-86
2022/01/09 08:40:28;;;;;;;22.88;4.13;;;5.60;99.90;;;;;;6123808;23;20362;-86
2022/01/09 08:42:53;;;;;;;19.45;4.38;;;5.60;99.90;;;;;;6125830;23;20024;-85
2022/01/09 08:45:20;;;;;;;23.30;4.45;;;5.60;99.90;;;;;;6098623;23;20525;-88
2022/01/09 08:47:46;;;;;;;25.48;5.82;;;5.60;99.90;;;;;;6099057;23;20022;-87
2022/01/09 08:50:14;;;;;;;18.77;3.30;;;5.60;99.90;;;;;;6098246;23;20462;-87
2022/01/09 08:52:40;;;;;;;21.70;3.67;;;5.60;99.90;;;;;;6099984;23;20026;-87
2022/01/09 08:55:10;;;;;;;40.33;4.88;;;5.60;99.90;;;;;;6077124;23;20026;-87
2022/01/09 08:57:36;;;;;;;24.70;3.78;;;5.50;99.90;;;;;;6076313;23;20021;-86
2022/01/09 09:00:04;;;;;;;24.05;3.60;;;5.50;99.90;;;;;;6101217;23;20093;-86
2022/01/09 09:02:30;;;;;;;26.10;4.60;;;5.50;99.90;;;;;;6127008;23;20049;-86
2022/01/09 09:04:58;;;;;;;18.17;4.18;;;5.50;99.90;;;;;;6082151;23;20358;-87
2022/01/09 09:07:24;;;;;;;26.55;7.78;;;5.50;99.90;;;;;;6126207;23;20026;-87
2022/01/09 09:09:51;;;;;;;26.25;6.30;;;5.50;99.90;;;;;;6125319;23;20544;-86
2022/01/09 09:12:18;;;;;;;21.27;3.45;;;5.50;99.90;;;;;;6077002;23;20446;-87
2022/01/09 09:14:46;;;;;;;23.40;3.85;;;5.60;99.90;;;;;;6101341;23;20029;-88
2022/01/09 09:17:13;;;;;;;23.38;3.70;;;5.60;99.90;;;;;;6076345;23;20022;-86
2022/01/09 09:19:39;;;;;;;24.80;3.25;;;5.60;99.90;;;;;;6123569;23;20089;-87
2022/01/09 09:22:05;;;;;;;22.00;3.90;;;5.70;99.90;;;;;;6100666;23;20029;-87
2022/01/09 09:24:30;;;;;;;23.13;3.63;;;5.70;99.90;;;;;;6100861;23;20033;-86
2022/01/09 09:26:56;;;;;;;22.85;3.88;;;5.70;99.90;;;;;;6100927;23;20453;-86
2022/01/09 09:29:22;;;;;;;23.05;3.92;;;5.80;99.90;;;;;;6126778;23;20552;-86
2022/01/09 09:31:48;;;;;;;17.38;3.08;;;5.80;99.90;;;;;;6125438;23;20025;-87
2022/01/09 09:34:14;;;;;;;20.08;4.18;;;5.80;99.90;;;;;;6100621;23;20342;-87
2022/01/09 09:36:40;;;;;;;22.83;4.13;;;5.80;99.90;;;;;;6076912;23;20033;-87
2022/01/09 09:39:08;;;;;;;23.98;4.60;;;5.80;99.90;;;;;;6124721;23;20105;-87
2022/01/09 09:41:34;;;;;;;17.50;3.63;;;5.70;99.90;;;;;;6125954;23;20018;-87
2022/01/09 09:44:07;;;;;;;18.88;3.65;;;5.70;99.90;;;;;;6126192;23;20032;-87
2022/01/09 09:46:41;;;;;;;19.17;4.18;;;5.80;99.90;;;;;;6077673;23;20026;-87
2022/01/09 09:49:07;;;;;;;24.07;4.53;;;5.80;99.90;;;;;;6102311;23;20026;-86
2022/01/09 09:51:33;;;;;;;20.70;3.85;;;5.80;99.90;;;;;;6081742;23;20033;-87
2022/01/09 09:53:59;;;;;;;18.65;3.10;;;5.90;99.90;;;;;;6128048;23;20018;-87
2022/01/09 09:56:25;;;;;;;23.85;5.78;;;5.90;99.90;;;;;;6125288;23;20537;-87
2022/01/09 09:58:52;;;;;;;23.45;3.53;;;5.90;99.90;;;;;;6075711;23;20058;-87
2022/01/09 10:01:31;;;;;;;22.70;3.10;;;5.90;99.90;;;;;;6100171;23;20026;-87
2022/01/09 10:04:03;;;;;;;23.17;3.85;;;6.00;99.90;;;;;;6099309;23;20088;-88
2022/01/09 10:06:36;;;;;;;24.20;4.30;;;6.00;99.90;;;;;;6076320;23;20033;-87
2022/01/09 10:09:07;;;;;;;25.77;3.67;;;6.10;99.90;;;;;;6099807;23;20026;-87
2022/01/09 10:11:44;;;;;;;18.10;3.78;;;6.30;99.90;;;;;;6100459;23;20062;-88
2022/01/09 10:14:12;;;;;;;19.15;3.35;;;6.40;99.90;;;;;;6100210;23;20054;-87
2022/01/09 10:16:38;;;;;;;15.48;2.95;;;6.40;99.90;;;;;;6053679;23;20101;-86
2022/01/09 10:19:04;;;;;;;22.83;5.60;;;6.60;99.90;;;;;;6053685;23;20065;-86
2022/01/09 10:21:30;;;;;;;12.50;2.83;;;6.70;99.90;;;;;;6101339;23;20022;-87
2022/01/09 10:24:08;;;;;;;16.92;3.03;;;6.90;99.90;;;;;;6124791;23;20106;-87
2022/01/09 10:26:40;;;;;;;14.02;2.50;;;7.00;99.90;;;;;;6075874;23;20395;-87
2022/01/09 10:29:07;;;;;;;21.65;2.65;;;7.20;99.90;;;;;;6076299;23;20026;-88
2022/01/09 10:31:47;;;;;;;15.55;2.58;;;7.20;99.90;;;;;;6076276;23;20065;-86
2022/01/09 10:34:16;;;;;;;15.27;2.58;;;7.40;99.90;;;;;;6099952;23;20440;-87
2022/01/09 10:36:50;;;;;;;19.17;3.53;;;7.50;99.90;;;;;;6125168;23;20022;-86
2022/01/09 10:39:17;;;;;;;23.17;3.53;;;7.70;99.90;;;;;;6103537;23;20022;-87
2022/01/09 10:41:53;;;;;;;18.77;4.15;;;7.80;99.90;;;;;;6104695;23;20380;-85
2022/01/09 10:44:21;;;;;;;10.00;2.72;;;7.70;99.90;;;;;;6080620;23;20105;-86
2022/01/09 10:47:15;;;;;;;17.13;3.03;;;7.70;99.90;;;;;;6099737;23;20032;-87
2022/01/09 10:49:47;;;;;;;23.60;3.63;;;7.60;99.90;;;;;;6095592;23;20053;-86
2022/01/09 10:52:17;;;;;;;18.13;4.78;;;7.60;99.90;;;;;;6124456;23;20085;-86
2022/01/09 10:54:46;;;;;;;23.45;3.17;;;7.60;99.90;;;;;;6124592;23;20093;-87
2022/01/09 10:57:26;;;;;;;23.42;3.97;;;7.50;99.90;;;;;;6102683;23;20026;-86
2022/01/09 10:59:53;;;;;;;18.00;3.70;;;7.40;99.90;;;;;;6125989;23;20025;-86
2022/01/09 11:02:20;;;;;;;30.38;5.28;;;7.30;99.90;;;;;;6075889;23;20080;-86
2022/01/09 11:04:48;;;;;;;20.77;4.43;;;7.10;99.90;;;;;;6124175;23;20021;-86
2022/01/09 11:07:14;;;;;;;19.40;3.03;;;6.90;99.90;;;;;;6099635;23;20029;-86
2022/01/09 11:09:46;;;;;;;25.30;4.50;;;6.70;99.90;;;;;;6099325;23;20025;-86
2022/01/09 11:12:17;;;;;;;22.85;4.20;;;6.60;99.90;;;;;;6099759;23;20022;-87
2022/01/09 11:14:43;;;;;;;19.65;4.65;;;6.60;99.90;;;;;;6099843;23;20033;-87
2022/01/09 11:17:09;;;;;;;28.30;3.85;;;6.50;99.90;;;;;;6124962;23;20017;-88
2022/01/09 11:19:36;;;;;;;30.85;3.35;;;6.50;99.90;;;;;;6121722;23;20034;-87
2022/01/09 11:22:05;;;;;;;28.63;3.70;;;6.60;99.90;;;;;;6076318;23;20500;-86
2022/01/09 11:24:53;;;;;;;16.55;3.53;;;7.00;99.90;;;;;;6099636;23;20596;-87
2022/01/09 11:27:34;;;;;;;28.20;4.15;;;7.20;99.90;;;;;;6101251;23;20029;-86
2022/01/09 11:30:14;;;;;;;19.92;3.40;;;7.10;99.90;;;;;;6102527;23;20030;-85
2022/01/09 11:32:42;;;;;;;21.25;3.15;;;6.90;99.90;;;;;;6105372;23;20112;-85
2022/01/09 11:35:32;;;;;;;24.55;4.93;;;6.90;99.90;;;;;;6100260;23;20025;-86
2022/01/09 11:38:14;;;;;;;13.02;4.10;;;7.10;99.90;;;;;;6099548;23;20029;-88
2022/01/09 11:40:41;;;;;;;22.95;3.55;;;7.80;99.90;;;;;;6099365;23;20022;-85
2022/01/09 11:43:14;;;;;;;14.68;2.63;;;8.60;99.90;;;;;;6098847;23;20065;-86
2022/01/09 11:45:55;;;;;;;18.17;2.97;;;9.20;99.90;;;;;;6074794;23;20030;-86
2022/01/09 11:48:45;;;;;;;14.35;2.80;;;9.60;99.90;;;;;;6098657;23;20081;-87
2022/01/09 11:51:12;;;;;;;24.15;4.50;;;10.20;99.90;;;;;;6099028;23;20021;-86
2022/01/09 11:53:57;;;;;;;19.48;3.22;;;10.90;99.90;;;;;;6099048;23;20017;-86
2022/01/09 11:56:44;;;;;;;15.38;3.25;;;11.40;99.90;;;;;;6075228;23;20022;-87
2022/01/09 11:59:48;;;;;;;11.48;2.53;;;11.60;99.90;;;;;;6075241;23;20030;-87
2022/01/09 12:02:17;;;;;;;16.38;2.78;;;11.30;99.90;;;;;;6099167;23;20026;-86
2022/01/09 12:04:43;;;;;;;13.32;2.55;;;10.90;99.90;;;;;;6098777;23;20017;-86
2022/01/09 12:07:41;;;;;;;18.38;3.08;;;10.50;99.90;;;;;;6075145;23;20104;-85
2022/01/09 12:10:25;;;;;;;15.20;3.03;;;9.90;99.90;;;;;;6076140;23;20021;-88
2022/01/09 12:12:51;;;;;;;13.57;3.13;;;9.60;99.90;;;;;;6079719;23;20053;-84
2022/01/09 12:15:40;;;;;;;12.27;2.47;;;9.50;99.90;;;;;;6105500;23;20026;-86
2022/01/09 12:18:26;;;;;;;16.20;3.28;;;9.40;99.90;;;;;;6102386;23;20025;-86
2022/01/09 12:20:52;;;;;;;16.50;3.17;;;10.10;99.90;;;;;;6071357;23;20097;-86
2022/01/09 12:23:22;;;;;;;23.08;3.78;;;10.90;99.90;;;;;;6071184;23;20030;-87
2022/01/09 12:25:51;;;;;;;14.10;3.15;;;10.70;99.90;;;;;;6096213;23;20026;-86
2022/01/09 12:28:23;;;;;;;17.42;3.40;;;10.70;99.90;;;;;;6071698;23;20022;-88
2022/01/09 12:30:55;;;;;;;14.30;2.67;;;10.30;99.90;;;;;;6071545;23;20031;-87
2022/01/09 12:33:34;;;;;;;15.55;2.50;;;9.70;99.90;;;;;;6071842;23;20033;-86
2022/01/09 12:36:06;;;;;;;17.02;2.88;;;9.20;99.90;;;;;;6098496;23;20034;-86
2022/01/09 12:38:39;;;;;;;12.80;2.42;;;9.30;99.90;;;;;;6096608;23;20022;-87
2022/01/09 12:41:08;;;;;;;12.13;2.30;;;10.10;99.90;;;;;;6096440;23;20026;-87
2022/01/09 12:43:36;;;;;;;19.55;3.00;;;10.50;99.90;;;;;;6049163;23;20081;-86
2022/01/09 12:46:14;;;;;;;16.20;3.10;;;9.90;99.90;;;;;;6096641;23;20454;-86
2022/01/09 12:48:40;;;;;;;15.95;3.08;;;9.30;99.90;;;;;;6072257;23;20037;-85
2022/01/09 12:51:14;;;;;;;13.20;2.50;;;8.70;99.90;;;;;;6098408;23;20450;-86
2022/01/09 12:53:44;;;;;;;18.03;2.43;;;8.30;99.90;;;;;;6098046;23;20481;-85